createdAt,value
2023-05-03T00:03:27.806Z,11.2
2023-05-03T00:08:33.866Z,11.2
2023-05-03T00:13:40.100Z,11.5
2023-05-03T00:18:46.095Z,11.2
2023-05-03T00:23:51.226Z,11.5
2023-05-03T00:28:57.277Z,11.2
2023-05-03T00:34:03.307Z,11.5
2023-05-03T00:39:09.483Z,10.9
2023-05-03T00:44:15.590Z,11.2
2023-05-03T00:49:21.677Z,11.2
2023-05-03T00:54:27.780Z,11.5
2023-05-03T00:59:33.883Z,10.9
2023-05-03T01:04:39.953Z,11.2
2023-05-03T01:09:46.016Z,10.9
2023-05-03T01:14:52.158Z,11.2
2023-05-03T01:19:58.242Z,10.9
2023-05-03T01:25:04.214Z,11.2
2023-05-03T01:30:09.430Z,11.2
2023-05-03T01:35:15.613Z,11.2
2023-05-03T01:40:21.521Z,10.9
2023-05-03T01:45:27.619Z,10.9
2023-05-03T01:50:33.843Z,10.5
2023-05-03T01:55:39.838Z,10.5
2023-05-03T02:00:45.942Z,11.2
2023-05-03T02:05:52.077Z,10.9
2023-05-03T02:10:58.140Z,10.9
2023-05-03T02:16:04.374Z,10.9
2023-05-03T02:21:10.334Z,10.5
2023-05-03T02:31:22.692Z,10.5
2023-05-03T02:36:27.702Z,10.9
2023-05-03T02:41:33.775Z,10.5
2023-05-03T02:46:39.840Z,10.5
2023-05-03T02:51:45.968Z,10.9
2023-05-03T02:56:52.178Z,10.5
2023-05-03T03:01:58.184Z,10.5
2023-05-03T03:07:04.391Z,10.5
2023-05-03T03:12:10.533Z,10.5
2023-05-03T03:17:16.507Z,11.2
2023-05-03T03:22:22.530Z,10.5
2023-05-03T03:27:28.696Z,10.9
2023-05-03T03:32:34.855Z,10.5
2023-05-03T03:37:40.943Z,10.5
2023-05-03T03:42:46.111Z,10.5
2023-05-03T03:47:52.029Z,10.2
2023-05-03T03:52:58.143Z,10.2
2023-05-03T03:58:04.245Z,10.9
2023-05-03T04:03:10.352Z,10.5
2023-05-03T04:08:16.473Z,10.5
2023-05-03T04:13:22.621Z,10.9
2023-05-03T04:18:28.626Z,10.2
2023-05-03T04:23:34.742Z,10.2
2023-05-03T04:28:40.897Z,10.2
2023-05-03T04:33:46.934Z,9.9
2023-05-03T04:38:53.026Z,10.5
2023-05-03T04:43:59.137Z,10.5
2023-05-03T04:49:04.243Z,10.9
2023-05-03T04:54:10.338Z,10.2
2023-05-03T04:59:16.494Z,10.5
2023-05-03T05:04:22.683Z,10.2
2023-05-03T05:09:28.755Z,10.5
2023-05-03T05:14:34.747Z,11.2
2023-05-03T05:19:40.901Z,10.2
2023-05-03T05:24:46.988Z,10.2
2023-05-03T05:29:53.168Z,10.2
2023-05-03T05:34:59.223Z,10.9
2023-05-03T05:40:05.311Z,9.9
2023-05-03T05:45:11.363Z,10.5
2023-05-03T05:50:17.490Z,10.9
2023-05-03T05:55:22.542Z,9.9
2023-05-03T06:00:28.770Z,9.9
2023-05-03T06:05:34.791Z,9.9
2023-05-03T06:10:40.964Z,9.9
2023-05-03T06:15:47.006Z,9.9
2023-05-03T06:20:53.192Z,10.2
2023-05-03T06:25:59.206Z,9.9
2023-05-03T06:31:05.257Z,9.9
2023-05-03T06:36:11.354Z,10.2
2023-05-03T06:41:17.546Z,9.9
2023-05-03T06:46:23.649Z,9.9
2023-05-03T06:51:29.681Z,10.2
2023-05-03T06:56:35.705Z,10.5
2023-05-03T07:01:40.834Z,10.2
2023-05-03T07:06:46.988Z,9.9
2023-05-03T07:11:53.024Z,9.9
2023-05-03T07:16:59.112Z,10.5
2023-05-03T07:22:05.213Z,9.9
2023-05-03T07:27:11.304Z,9.9
2023-05-03T07:32:17.506Z,10.2
2023-05-03T07:37:23.638Z,9.9
2023-05-03T07:42:29.580Z,10.5
2023-05-03T07:47:35.769Z,10.2
2023-05-03T07:52:41.777Z,9.9
2023-05-03T07:57:47.894Z,10.2
2023-05-03T08:02:54.008Z,10.5
2023-05-03T08:07:59.171Z,9.9
2023-05-03T08:13:05.222Z,9.9
2023-05-03T08:18:11.386Z,10.2
2023-05-03T08:23:17.499Z,9.9
2023-05-03T08:28:23.701Z,9.9
2023-05-03T08:33:29.582Z,10.2
2023-05-03T08:38:35.695Z,10.5
2023-05-03T08:43:41.897Z,9.9
2023-05-03T08:48:47.881Z,9.9
2023-05-03T08:53:53.963Z,10.2
2023-05-03T08:59:00.135Z,9.9
2023-05-03T09:04:06.158Z,9.9
2023-05-03T09:09:12.253Z,10.2
2023-05-03T09:14:17.360Z,9.9
2023-05-03T09:19:23.501Z,10.2
2023-05-03T09:24:29.756Z,9.9
2023-05-03T09:29:35.694Z,10.2
2023-05-03T09:34:41.755Z,10.2
2023-05-03T09:39:47.958Z,10.2
2023-05-03T09:44:53.103Z,10.5
2023-05-03T09:49:59.050Z,10.5
2023-05-03T09:55:05.257Z,10.2
2023-05-03T10:00:11.367Z,9.9
2023-05-03T10:05:17.428Z,10.2
2023-05-03T10:10:23.632Z,10.5
2023-05-03T10:15:29.683Z,10.2
2023-05-03T10:20:35.627Z,10.2
2023-05-03T10:25:41.724Z,10.5
2023-05-03T10:30:47.889Z,10.5
2023-05-03T10:35:53.919Z,11.2
2023-05-03T10:41:00.105Z,10.5
2023-05-03T10:46:06.142Z,10.5
2023-05-03T10:51:11.288Z,10.5
2023-05-03T10:56:17.299Z,10.5
2023-05-03T11:01:23.386Z,10.9
2023-05-03T11:06:29.557Z,11.2
2023-05-03T11:11:35.582Z,11.5
2023-05-03T11:16:41.684Z,10.9
2023-05-03T11:21:47.943Z,10.5
2023-05-03T11:26:53.976Z,10.5
2023-05-03T11:31:59.971Z,10.9
2023-05-03T11:37:06.058Z,10.9
2023-05-03T11:42:12.321Z,11.2
2023-05-03T11:47:18.329Z,10.9
2023-05-03T11:52:24.352Z,11.2
2023-05-03T11:57:29.454Z,10.9
2023-05-03T12:02:35.656Z,11.2
2023-05-03T12:07:41.778Z,11.2
2023-05-03T12:12:47.775Z,11.8
2023-05-03T12:17:53.878Z,10.9
2023-05-03T12:22:59.959Z,11.5
2023-05-03T12:28:06.066Z,11.5
2023-05-03T12:33:12.181Z,11.5
2023-05-03T12:38:18.415Z,12.1
2023-05-03T12:43:24.337Z,11.5
2023-05-03T12:48:30.438Z,11.8
2023-05-03T12:53:36.558Z,11.5
2023-05-03T12:58:42.643Z,11.8
2023-05-03T13:03:47.736Z,11.8
2023-05-03T13:08:53.850Z,12.1
2023-05-03T13:14:00.092Z,11.8
2023-05-03T13:19:06.020Z,12.1
2023-05-03T13:24:12.150Z,12.5
2023-05-03T13:29:18.197Z,12.5
2023-05-03T13:34:24.303Z,12.8
2023-05-03T13:39:30.428Z,13.1
2023-05-03T13:44:36.494Z,12.5
2023-05-03T13:49:42.589Z,12.8
2023-05-03T13:54:48.698Z,12.5
2023-05-03T13:59:54.924Z,12.8
2023-05-03T14:05:00.979Z,12.5
2023-05-03T14:10:05.993Z,12.8
2023-05-03T14:15:12.069Z,12.8
2023-05-03T14:20:18.285Z,12.8
2023-05-03T14:25:24.307Z,13.4
2023-05-03T14:30:30.365Z,13.4
2023-05-03T14:35:36.457Z,13.4
2023-05-03T14:40:42.555Z,13.4
2023-05-03T14:45:48.653Z,13.4
2023-05-03T14:50:54.740Z,13.4
2023-05-03T14:56:00.856Z,13.4
2023-05-03T15:01:06.962Z,13.4
2023-05-03T15:06:13.055Z,13.8
2023-05-03T15:11:19.134Z,13.4
2023-05-03T15:16:24.235Z,13.4
2023-05-03T15:21:30.498Z,13.8
2023-05-03T15:26:36.510Z,13.8
2023-05-03T15:31:42.529Z,13.8
2023-05-03T15:36:48.666Z,13.8
2023-05-03T15:41:54.745Z,14.1
2023-05-03T15:47:00.982Z,13.8
2023-05-03T15:52:06.934Z,13.8
2023-05-03T15:57:13.188Z,13.4
2023-05-03T16:02:19.252Z,13.8
2023-05-03T16:07:25.217Z,13.8
2023-05-03T16:12:31.495Z,14.1
2023-05-03T16:17:37.439Z,14.1
2023-05-03T16:22:42.678Z,13.8
2023-05-03T16:27:48.622Z,13.8
2023-05-03T16:32:54.836Z,13.4
2023-05-03T16:38:00.948Z,13.4
2023-05-03T16:43:06.926Z,13.8
2023-05-03T16:48:13.198Z,13.8
2023-05-03T16:53:19.089Z,14.1
2023-05-03T16:58:25.172Z,13.8
2023-05-03T17:03:31.395Z,13.8
2023-05-03T17:08:37.446Z,13.8
2023-05-03T17:13:43.593Z,14.1
2023-05-03T17:18:49.686Z,14.7
2023-05-03T17:23:55.872Z,14.1
2023-05-03T17:29:00.932Z,13.8
2023-05-03T17:34:06.970Z,14.1
2023-05-03T17:39:13.236Z,14.1
2023-05-03T17:44:19.170Z,13.8
2023-05-03T17:49:25.159Z,13.4
2023-05-03T17:54:31.370Z,13.8
2023-05-03T17:59:37.459Z,13.4
2023-05-03T18:04:43.558Z,13.4
2023-05-03T18:09:49.588Z,14.4
2023-05-03T18:14:55.811Z,13.8
2023-05-03T18:20:01.729Z,13.4
2023-05-03T18:25:08.091Z,13.8
2023-05-03T18:30:14.003Z,13.8
2023-05-03T18:35:19.199Z,13.4
2023-05-03T18:40:25.210Z,13.4
2023-05-03T18:45:31.390Z,13.8
2023-05-03T18:50:37.351Z,13.4
2023-05-03T18:55:43.602Z,13.4
2023-05-03T19:00:49.710Z,13.8
2023-05-03T19:05:55.715Z,13.8
2023-05-03T19:11:01.717Z,13.4
2023-05-03T19:16:08.004Z,13.8
2023-05-03T19:21:14.001Z,13.8
2023-05-03T19:26:20.011Z,13.8
2023-05-03T19:31:26.091Z,14.1
2023-05-03T19:36:32.207Z,13.4
2023-05-03T19:41:37.310Z,13.8
2023-05-03T19:46:43.424Z,13.8
2023-05-03T19:51:49.524Z,14.1
2023-05-03T20:02:01.698Z,13.1
2023-05-03T20:07:07.806Z,13.4
2023-05-03T20:12:13.909Z,13.1
2023-05-03T20:17:20.089Z,13.1
2023-05-03T20:22:26.090Z,13.4
2023-05-03T20:27:32.201Z,13.4
2023-05-03T20:32:38.299Z,13.1
2023-05-03T20:37:44.391Z,12.8
2023-05-03T20:42:50.510Z,13.1
2023-05-03T20:47:55.593Z,12.8
2023-05-03T20:53:01.756Z,12.8
2023-05-03T20:58:07.814Z,13.1
2023-05-03T21:03:13.882Z,12.8
2023-05-03T21:08:20.001Z,12.8
2023-05-03T21:13:26.104Z,13.1
2023-05-03T21:18:32.192Z,12.8
2023-05-03T21:23:38.305Z,12.5
2023-05-03T21:28:44.442Z,12.8
2023-05-03T21:33:50.483Z,12.5
2023-05-03T21:38:56.580Z,12.5
2023-05-03T21:44:02.676Z,12.5
2023-05-03T21:49:08.782Z,12.8
2023-05-03T21:54:13.897Z,12.8
2023-05-03T21:59:20.009Z,12.5
2023-05-03T22:04:26.073Z,12.5
2023-05-03T22:09:32.181Z,12.5
2023-05-03T22:14:38.277Z,12.8
2023-05-03T22:19:44.360Z,12.8
2023-05-03T22:24:50.464Z,12.5
2023-05-03T22:29:56.577Z,12.1
2023-05-03T22:35:02.666Z,12.1
2023-05-03T22:40:08.780Z,12.5
2023-05-03T22:45:14.863Z,12.1
2023-05-03T22:50:20.949Z,13.1
2023-05-03T22:55:27.056Z,12.8
2023-05-03T23:00:32.152Z,12.1
2023-05-03T23:05:38.253Z,11.8
2023-05-03T23:10:44.372Z,11.8
2023-05-03T23:15:50.449Z,11.8
2023-05-03T23:20:56.556Z,12.1
2023-05-03T23:26:02.651Z,12.1
2023-05-03T23:31:08.809Z,12.1
2023-05-03T23:36:14.841Z,12.1
2023-05-03T23:41:20.943Z,11.8
2023-05-03T23:46:27.061Z,11.8
2023-05-03T23:51:33.144Z,12.1
2023-05-03T23:56:39.249Z,11.8
